Decoded Metar for PANN (NENANA in AK, USA) (IATA:ENN) | Meteo·Mobile Aviation Weather
aviador You're here:

PANN Decoded Metar

NENANA in AK, USA
Report Time2018-12-12 00:53:00
UTC Time2018-12-12 01:10:58
Flight Rules vfr VFR
Wind310° at 09 Gusting to 16 kt
W.Decomp.*RWY 22: 3.2 kt HW 8.4 kt RCW
W.Rank310° ranks 5
Current wind is above 310° avg. (4.7)
Visibility9999 m
Phenomena:N/A
Clouds:Overcast 030 Hf
Expected CloudBase > 2,000 ft AGL from Temp-Dew spread
Ceiling3,000 ft
Temp-13°C (ISA -27)
Dew Point-18°C (66% RH)
AAT-19.8°C
QNH977 hPa
Density Alt-1,791 ft
Elevation361 ft
Report Wrong Elevation
Raw Report
PANN 120053Z AUTO 31009G16KT 10SM OVC030 M13/M18 A2885 RMK AO2
SLP784 T11331178 TSNO=

Extra information for PANN:More info

Metar Taf Metar & Taf Last 4 Metars F.Rules Stats Wind Profile Meteogram Temp Stats Airport Information Weather charts Add Link Nearby VenuesMetar ALERT Operation Metar Decoded Social comments

AIRNAV info for PANN